createdAt,value
2022-10-23T00:02:50.475Z,100999.34
2022-10-23T00:07:59.170Z,101000.80
2022-10-23T00:13:04.693Z,100994.98
2022-10-23T00:18:10.072Z,101004.61
2022-10-23T00:23:15.514Z,101007.98
2022-10-23T00:28:20.885Z,101011.80
2022-10-23T00:33:26.409Z,101012.50
2022-10-23T00:38:31.852Z,101008.36
2022-10-23T00:43:39.408Z,101016.33
2022-10-23T00:48:44.940Z,101007.39
2022-10-23T00:54:01.427Z,101008.62
2022-10-23T00:59:01.036Z,101006.45
2022-10-23T01:04:08.521Z,101009.39
2022-10-23T01:09:25.686Z,101004.48
2022-10-23T01:14:40.542Z,101008.38
2022-10-23T01:20:05.907Z,101015.88
2022-10-23T01:25:14.406Z,101005.10
2022-10-23T01:30:21.254Z,101015.66
2022-10-23T01:35:34.194Z,101016.52
2022-10-23T01:40:44.331Z,101019.80
2022-10-23T01:45:53.399Z,101017.01
2022-10-23T01:51:06.561Z,101019.22
2022-10-23T01:56:15.494Z,101025.47
2022-10-23T02:01:24.416Z,101026.05
2022-10-23T02:06:30.667Z,101032.41
2022-10-23T02:11:39.184Z,101030.92
2022-10-23T02:16:47.595Z,101016.46
2022-10-23T02:22:12.635Z,101026.03
2022-10-23T02:27:21.131Z,101023.82
2022-10-23T02:32:29.944Z,101028.72
2022-10-23T02:37:35.666Z,101035.83
2022-10-23T02:42:50.332Z,101031.44
2022-10-23T02:48:07.732Z,101041.14
2022-10-23T02:53:40.816Z,101034.48
2022-10-23T02:58:58.376Z,101044.98
2022-10-23T03:04:07.751Z,101054.07
2022-10-23T03:09:13.342Z,101054.66
2022-10-23T03:14:19.759Z,101041.68
2022-10-23T03:19:25.214Z,101049.66
2022-10-23T03:24:30.732Z,101055.90
2022-10-23T03:29:36.268Z,101052.83
2022-10-23T03:34:41.985Z,101062.21
2022-10-23T03:39:47.506Z,101058.17
2022-10-23T03:44:53.035Z,101060.66
2022-10-23T03:49:58.631Z,101055.65
2022-10-23T03:55:04.417Z,101056.86
2022-10-23T04:00:11.162Z,101053.44
2022-10-23T04:05:22.090Z,101056.03
2022-10-23T04:10:29.301Z,101057.37
2022-10-23T04:15:34.812Z,101070.46
2022-10-23T04:20:40.736Z,101064.80
2022-10-23T04:30:52.702Z,101076.92
2022-10-23T04:35:58.574Z,101070.71
2022-10-23T04:41:05.770Z,101077.65
2022-10-23T04:46:12.662Z,101079.86
2022-10-23T04:51:18.253Z,101084.27
2022-10-23T04:56:34.381Z,101086.11
2022-10-23T05:01:43.168Z,101086.80
2022-10-23T05:06:48.719Z,101091.11
2022-10-23T05:11:59.198Z,101098.11
2022-10-23T05:17:07.674Z,101097.08
2022-10-23T05:22:14.988Z,101095.49
2022-10-23T05:27:22.056Z,101094.77
2022-10-23T05:32:32.402Z,101099.15
2022-10-23T05:37:43.999Z,101094.14
2022-10-23T05:42:54.195Z,101091.59
2022-10-23T05:48:11.110Z,101092.48
2022-10-23T05:53:26.295Z,101084.89
2022-10-23T05:58:42.554Z,101089.47
2022-10-23T06:03:51.251Z,101084.75
2022-10-23T06:08:57.247Z,101104.30
2022-10-23T06:14:02.997Z,101108.98
2022-10-23T06:19:13.376Z,101106.91
2022-10-23T06:24:19.771Z,101104.45
2022-10-23T06:29:27.087Z,101103.59
2022-10-23T06:34:33.414Z,101103.41
2022-10-23T06:39:40.582Z,101108.13
2022-10-23T06:44:47.708Z,101116.78
2022-10-23T06:49:54.843Z,101112.27
2022-10-23T06:55:00.633Z,101107.56
2022-10-23T07:00:08.887Z,101104.17
2022-10-23T07:05:16.167Z,101106.09
2022-10-23T07:10:22.278Z,101117.24
2022-10-23T07:15:29.650Z,101126.08
2022-10-23T07:20:36.219Z,101119.88
2022-10-23T07:25:42.202Z,101114.67
2022-10-23T07:30:59.174Z,101122.76
2022-10-23T07:36:08.986Z,101127.66
2022-10-23T07:41:15.602Z,101133.30
2022-10-23T07:46:22.502Z,101126.25
2022-10-23T07:51:28.323Z,101130.22
2022-10-23T07:56:35.861Z,101141.75
2022-10-23T08:02:01.513Z,101133.53
2022-10-23T08:07:09.041Z,101140.75
2022-10-23T08:12:16.185Z,101140.77
2022-10-23T08:17:25.077Z,101147.73
2022-10-23T08:22:39.876Z,101144.80
2022-10-23T08:27:46.541Z,101149.55
2022-10-23T08:32:53.256Z,101148.81
2022-10-23T08:37:58.760Z,101142.83
2022-10-23T08:43:15.448Z,101137.70
2022-10-23T08:48:42.515Z,101135.16
2022-10-23T08:54:01.773Z,101128.97
2022-10-23T08:59:10.182Z,101137.11
2022-10-23T09:04:16.546Z,101158.53
2022-10-23T09:09:43.129Z,101164.39
2022-10-23T09:14:54.611Z,101156.42
2022-10-23T09:20:15.557Z,101163.50
2022-10-23T09:25:27.150Z,101160.20
2022-10-23T09:30:38.133Z,101170.14
2022-10-23T09:35:58.917Z,101169.16
2022-10-23T09:41:24.140Z,101168.91
2022-10-23T09:46:44.790Z,101166.34
2022-10-23T09:51:59.371Z,101169.16
2022-10-23T09:57:22.875Z,101160.94
2022-10-23T10:02:34.078Z,101155.31
2022-10-23T10:08:11.831Z,101156.30
2022-10-23T10:13:42.839Z,101152.89
2022-10-23T10:19:06.891Z,101153.16
2022-10-23T10:24:32.214Z,101144.45
2022-10-23T10:29:58.137Z,101146.05
2022-10-23T10:35:37.298Z,101140.52
2022-10-23T10:41:19.567Z,101137.30
2022-10-23T10:46:44.224Z,101143.58
2022-10-23T10:51:57.004Z,101138.14
2022-10-23T10:57:05.866Z,101124.69
2022-10-23T11:02:26.504Z,101114.05
2022-10-23T11:07:38.432Z,101115.55
2022-10-23T11:12:46.494Z,101110.31
2022-10-23T11:17:57.865Z,101109.17
2022-10-23T11:23:29.142Z,101115.48
2022-10-23T11:28:49.665Z,101107.61
2022-10-23T11:34:24.492Z,101104.39
2022-10-23T11:39:32.086Z,101093.94
2022-10-23T11:44:50.212Z,101077.31
2022-10-23T11:50:12.596Z,101075.59
2022-10-23T11:55:21.396Z,101073.74
2022-10-23T12:00:29.895Z,101064.42
2022-10-23T12:05:44.228Z,101062.60
2022-10-23T12:10:52.947Z,101051.59
2022-10-23T12:16:00.816Z,101041.22
2022-10-23T12:21:06.125Z,101037.20
2022-10-23T12:26:23.607Z,101023.95
2022-10-23T12:31:44.223Z,101009.97
2022-10-23T12:37:18.180Z,101014.48
2022-10-23T12:42:26.042Z,101016.34
2022-10-23T12:47:32.394Z,101008.55
2022-10-23T12:52:40.467Z,101010.95
2022-10-23T12:57:46.890Z,101008.89
2022-10-23T13:03:04.096Z,101005.28
2022-10-23T13:08:11.982Z,100997.21
2022-10-23T13:13:24.644Z,101001.04
2022-10-23T13:18:30.178Z,100994.28
2022-10-23T13:23:37.003Z,100989.34
2022-10-23T13:28:47.141Z,100981.20
2022-10-23T13:34:04.641Z,100978.31
2022-10-23T13:39:16.115Z,100976.85
2022-10-23T13:44:24.165Z,100971.98
2022-10-23T13:49:29.761Z,100968.28
2022-10-23T13:54:35.226Z,100953.91
2022-10-23T13:59:41.241Z,100950.76
2022-10-23T14:04:47.320Z,100955.11
2022-10-23T14:09:52.693Z,100949.13
2022-10-23T14:14:58.068Z,100942.11
2022-10-23T14:20:06.145Z,100943.59
2022-10-23T14:25:12.277Z,100941.20
2022-10-23T14:30:17.876Z,100930.84
2022-10-23T14:35:23.412Z,100932.98
2022-10-23T14:40:28.776Z,100926.58
2022-10-23T14:45:34.555Z,100922.59
2022-10-23T14:50:45.899Z,100916.27
2022-10-23T14:55:51.438Z,100908.95
2022-10-23T15:01:02.230Z,100899.02
2022-10-23T15:06:09.037Z,100896.30
2022-10-23T15:11:15.325Z,100890.09
2022-10-23T15:16:21.622Z,100888.75
2022-10-23T15:21:27.023Z,100891.30
2022-10-23T15:26:32.617Z,100893.59
2022-10-23T15:31:41.053Z,100893.28
2022-10-23T15:36:47.763Z,100884.86
2022-10-23T15:41:56.156Z,100883.48
2022-10-23T15:47:01.893Z,100870.63
2022-10-23T15:57:15.478Z,100874.78
2022-10-23T16:02:21.932Z,100874.35
2022-10-23T16:07:27.686Z,100869.75
2022-10-23T16:12:33.301Z,100868.92
2022-10-23T16:17:38.769Z,100867.59
2022-10-23T16:22:45.100Z,100867.47
2022-10-23T16:27:51.007Z,100859.28
2022-10-23T16:32:56.468Z,100860.27
2022-10-23T16:38:02.007Z,100856.71
2022-10-23T16:43:07.528Z,100853.80
2022-10-23T16:48:23.788Z,100851.84
2022-10-23T16:53:31.038Z,100844.47
2022-10-23T16:58:37.268Z,100839.34
2022-10-23T17:03:45.022Z,100835.53
2022-10-23T17:08:51.121Z,100834.92
2022-10-23T17:14:05.467Z,100831.36
2022-10-23T17:19:20.890Z,100825.88
2022-10-23T17:24:20.525Z,100819.73
2022-10-23T17:29:25.988Z,100813.34
2022-10-23T17:34:31.530Z,100804.88
2022-10-23T17:39:36.995Z,100807.45
2022-10-23T17:44:42.469Z,100799.11
2022-10-23T17:49:48.003Z,100791.41
2022-10-23T17:54:53.655Z,100798.15
2022-10-23T18:00:00.159Z,100786.46
2022-10-23T18:05:06.340Z,100779.59
2022-10-23T18:10:12.796Z,100761.55
2022-10-23T18:15:18.429Z,100758.28
2022-10-23T18:20:23.971Z,100752.11
2022-10-23T18:25:29.368Z,100740.05
2022-10-23T18:30:39.296Z,100729.00
2022-10-23T18:35:44.813Z,100721.51
2022-10-23T18:40:53.245Z,100714.03
2022-10-23T18:45:58.711Z,100720.58
2022-10-23T18:51:04.194Z,100725.13
2022-10-23T18:56:10.619Z,100725.00
2022-10-23T19:01:16.307Z,100724.63
2022-10-23T19:06:22.867Z,100717.27
2022-10-23T19:11:29.538Z,100724.87
2022-10-23T19:17:02.254Z,100727.12
2022-10-23T19:22:09.567Z,100715.06
2022-10-23T19:27:15.389Z,100692.38
2022-10-23T19:32:22.508Z,100698.50
2022-10-23T19:37:28.003Z,100703.41
2022-10-23T19:42:38.346Z,100699.73
2022-10-23T19:47:44.996Z,100688.12
2022-10-23T19:52:51.327Z,100682.11
2022-10-23T19:57:56.830Z,100667.05
2022-10-23T20:03:02.584Z,100689.58
2022-10-23T20:08:08.167Z,100696.08
2022-10-23T20:13:21.580Z,100693.38
2022-10-23T20:18:20.953Z,100677.11
2022-10-23T20:23:26.997Z,100675.36
2022-10-23T20:28:32.703Z,100676.49
2022-10-23T20:33:39.838Z,100677.84
2022-10-23T20:38:45.387Z,100659.58
2022-10-23T20:43:51.173Z,100652.83
2022-10-23T20:48:56.716Z,100646.09
2022-10-23T20:54:02.308Z,100644.86
2022-10-23T20:59:16.460Z,100636.52
2022-10-23T21:04:24.900Z,100631.86
2022-10-23T21:09:31.396Z,100627.45
2022-10-23T21:14:37.541Z,100610.78
2022-10-23T21:19:43.015Z,100601.62
2022-10-23T21:24:48.732Z,100591.16
2022-10-23T21:29:54.323Z,100588.26
2022-10-23T21:34:59.793Z,100593.16
2022-10-23T21:40:23.015Z,100590.83
2022-10-23T21:45:28.475Z,100594.02
2022-10-23T21:50:33.990Z,100581.02
2022-10-23T21:55:39.526Z,100580.98
2022-10-23T22:00:45.049Z,100579.27
2022-10-23T22:05:50.598Z,100571.30
2022-10-23T22:10:56.354Z,100557.09
2022-10-23T22:16:05.395Z,100537.10
2022-10-23T22:21:17.152Z,100539.42
2022-10-23T22:26:25.650Z,100545.31
2022-10-23T22:31:33.378Z,100530.72
2022-10-23T22:36:39.747Z,100532.18
2022-10-23T22:41:45.285Z,100526.91
2022-10-23T22:46:51.615Z,100518.70
2022-10-23T22:51:57.311Z,100512.56
2022-10-23T22:57:02.868Z,100507.79
2022-10-23T23:02:08.564Z,100497.98
2022-10-23T23:07:14.572Z,100499.22
2022-10-23T23:12:20.132Z,100499.95
2022-10-23T23:17:25.584Z,100498.23
2022-10-23T23:22:31.167Z,100498.97
2022-10-23T23:27:36.683Z,100539.17
2022-10-23T23:32:42.667Z,100522.63
2022-10-23T23:37:48.593Z,100515.14
2022-10-23T23:42:54.039Z,100507.75
2022-10-23T23:48:00.160Z,100494.50
2022-10-23T23:53:05.987Z,100490.81
2022-10-23T23:58:12.924Z,100492.16
